createdAt,value
2022-11-15T00:01:18.951Z,100498.56
2022-11-15T00:03:47.007Z,100502.89
2022-11-15T00:06:14.804Z,100494.44
2022-11-15T00:08:42.418Z,100493.23
2022-11-15T00:11:12.299Z,100484.27
2022-11-15T00:13:40.978Z,100485.48
2022-11-15T00:16:11.362Z,100483.75
2022-11-15T00:18:39.708Z,100481.52
2022-11-15T00:21:13.334Z,100480.63
2022-11-15T00:23:41.329Z,100477.53
2022-11-15T00:26:13.831Z,100472.34
2022-11-15T00:28:42.466Z,100465.77
2022-11-15T00:31:13.629Z,100462.85
2022-11-15T00:33:44.482Z,100459.75
2022-11-15T00:36:12.948Z,100456.13
2022-11-15T00:38:41.604Z,100453.52
2022-11-15T00:41:10.387Z,100449.22
2022-11-15T00:43:40.884Z,100448.18
2022-11-15T00:46:10.562Z,100445.60
2022-11-15T00:48:38.268Z,100444.40
2022-11-15T00:51:06.089Z,100446.29
2022-11-15T00:53:34.195Z,100445.23
2022-11-15T00:56:02.248Z,100440.75
2022-11-15T00:58:29.979Z,100439.20
2022-11-15T01:00:57.685Z,100438.52
2022-11-15T01:03:25.373Z,100435.91
2022-11-15T01:05:53.039Z,100431.41
2022-11-15T01:08:20.722Z,100430.55
2022-11-15T01:10:48.586Z,100433.33
2022-11-15T01:13:16.388Z,100432.29
2022-11-15T01:15:44.250Z,100427.98
2022-11-15T01:18:12.013Z,100425.92
2022-11-15T01:20:43.744Z,100420.24
2022-11-15T01:23:11.818Z,100418.85
2022-11-15T01:25:39.554Z,100417.46
2022-11-15T01:28:07.596Z,100415.90
2022-11-15T01:30:37.851Z,100416.23
2022-11-15T01:33:05.573Z,100410.02
2022-11-15T01:35:33.273Z,100412.08
2022-11-15T01:38:00.935Z,100408.11
2022-11-15T01:40:28.657Z,100404.83
2022-11-15T01:42:56.348Z,100399.48
2022-11-15T01:45:23.996Z,100395.33
2022-11-15T01:47:55.376Z,100394.65
2022-11-15T01:50:33.987Z,100395.87
2022-11-15T01:53:01.929Z,100388.97
2022-11-15T01:55:29.853Z,100377.77
2022-11-15T01:58:02.961Z,100374.66
2022-11-15T02:00:31.894Z,100373.98
2022-11-15T02:02:59.780Z,100374.48
2022-11-15T02:05:28.159Z,100370.33
2022-11-15T02:07:56.283Z,100371.36
2022-11-15T02:10:25.690Z,100367.56
2022-11-15T02:12:55.351Z,100364.98
2022-11-15T02:15:31.528Z,100363.60
2022-11-15T02:18:31.101Z,100358.08
2022-11-15T02:21:28.101Z,100361.88
2022-11-15T02:24:35.147Z,100352.86
2022-11-15T02:27:18.780Z,100342.85
2022-11-15T02:30:18.358Z,100341.30
2022-11-15T02:32:53.223Z,100334.39
2022-11-15T02:35:39.110Z,100335.42
2022-11-15T02:38:18.616Z,100336.99
2022-11-15T02:40:49.246Z,100336.65
2022-11-15T02:43:41.393Z,100333.20
2022-11-15T02:46:18.889Z,100322.70
2022-11-15T02:48:46.741Z,100319.60
2022-11-15T02:51:15.797Z,100317.36
2022-11-15T02:53:43.543Z,100319.60
2022-11-15T02:56:13.282Z,100316.83
2022-11-15T02:58:44.019Z,100311.49
2022-11-15T03:01:26.245Z,100310.65
2022-11-15T03:04:20.552Z,100306.67
2022-11-15T03:06:48.219Z,100305.45
2022-11-15T03:09:25.925Z,100303.52
2022-11-15T03:12:02.160Z,100295.41
2022-11-15T03:14:44.045Z,100296.77
2022-11-15T03:17:36.363Z,100298.48
2022-11-15T03:20:07.304Z,100299.69
2022-11-15T03:22:40.113Z,100299.52
2022-11-15T03:25:11.460Z,100295.20
2022-11-15T03:27:43.110Z,100288.81
2022-11-15T03:30:12.328Z,100287.63
2022-11-15T03:32:54.079Z,100282.79
2022-11-15T03:35:25.037Z,100278.83
2022-11-15T03:38:02.117Z,100270.88
2022-11-15T03:40:52.499Z,100264.82
2022-11-15T03:43:54.697Z,100260.50
2022-11-15T03:46:41.832Z,100257.38
2022-11-15T03:49:38.369Z,100254.10
2022-11-15T03:52:07.332Z,100250.34
2022-11-15T03:54:34.998Z,100245.69
2022-11-15T03:57:02.697Z,100243.95
2022-11-15T03:59:30.347Z,100245.85
2022-11-15T04:01:58.055Z,100239.83
2022-11-15T04:04:25.904Z,100237.59
2022-11-15T04:06:53.614Z,100231.56
2022-11-15T04:09:21.408Z,100235.73
2022-11-15T04:11:49.073Z,100240.21
2022-11-15T04:14:16.806Z,100242.12
2022-11-15T04:16:44.438Z,100239.00
2022-11-15T04:19:28.034Z,100234.88
2022-11-15T04:22:11.669Z,100238.17
2022-11-15T04:24:39.420Z,100234.55
2022-11-15T04:27:07.059Z,100237.65
2022-11-15T04:29:37.559Z,100237.48
2022-11-15T04:32:07.657Z,100237.15
2022-11-15T04:34:36.111Z,100232.65
2022-11-15T04:37:19.755Z,100237.48
2022-11-15T04:39:47.543Z,100244.39
2022-11-15T04:42:15.182Z,100242.65
2022-11-15T04:44:42.869Z,100237.30
2022-11-15T04:47:10.464Z,100239.52
2022-11-15T04:49:38.056Z,100243.83
2022-11-15T04:52:05.648Z,100242.44
2022-11-15T04:54:33.292Z,100245.38
2022-11-15T04:57:01.002Z,100237.77
2022-11-15T04:59:28.623Z,100234.84
2022-11-15T05:01:56.236Z,100238.48
2022-11-15T05:04:23.875Z,100238.17
2022-11-15T05:06:52.586Z,100234.74
2022-11-15T05:09:21.494Z,100226.48
2022-11-15T05:11:49.165Z,100221.15
2022-11-15T05:14:17.264Z,100220.08
2022-11-15T05:16:44.937Z,100219.39
2022-11-15T05:19:12.567Z,100212.65
2022-11-15T05:21:40.463Z,100203.66
2022-11-15T05:24:13.063Z,100197.45
2022-11-15T05:26:40.638Z,100191.56
2022-11-15T05:29:11.665Z,100190.01
2022-11-15T05:31:42.726Z,100186.38
2022-11-15T05:34:10.712Z,100186.04
2022-11-15T05:36:43.168Z,100184.17
2022-11-15T05:39:10.786Z,100180.90
2022-11-15T05:41:40.715Z,100179.67
2022-11-15T05:44:11.481Z,100178.46
2022-11-15T05:46:42.277Z,100178.28
2022-11-15T05:49:13.682Z,100175.14
2022-11-15T05:51:43.130Z,100178.44
2022-11-15T05:54:12.335Z,100186.88
2022-11-15T05:56:40.279Z,100197.27
2022-11-15T05:59:10.639Z,100192.60
2022-11-15T06:01:40.417Z,100193.45
2022-11-15T06:04:08.102Z,100199.30
2022-11-15T06:06:35.751Z,100194.62
2022-11-15T06:09:03.459Z,100192.52
2022-11-15T06:11:31.192Z,100197.19
2022-11-15T06:13:58.794Z,100202.05
2022-11-15T06:16:26.406Z,100210.54
2022-11-15T06:18:53.993Z,100213.34
2022-11-15T06:21:21.774Z,100214.22
2022-11-15T06:23:49.367Z,100214.73
2022-11-15T06:26:16.954Z,100217.66
2022-11-15T06:28:44.518Z,100219.59
2022-11-15T06:31:12.503Z,100223.20
2022-11-15T06:33:41.075Z,100220.10
2022-11-15T06:36:17.490Z,100221.98
2022-11-15T06:38:48.817Z,100225.23
2022-11-15T06:41:17.866Z,100225.73
2022-11-15T06:43:45.489Z,100229.00
2022-11-15T06:46:15.670Z,100235.22
2022-11-15T06:48:44.828Z,100233.48
2022-11-15T06:51:12.656Z,100233.48
2022-11-15T06:53:42.930Z,100231.92
2022-11-15T06:56:19.934Z,100235.70
2022-11-15T06:58:47.688Z,100232.95
2022-11-15T07:01:18.476Z,100232.59
2022-11-15T07:03:47.193Z,100230.52
2022-11-15T07:06:18.989Z,100236.08
2022-11-15T07:08:46.623Z,100229.68
2022-11-15T07:11:14.643Z,100228.14
2022-11-15T07:13:44.556Z,100222.42
2022-11-15T07:16:12.373Z,100221.39
2022-11-15T07:18:41.345Z,100218.95
2022-11-15T07:21:11.829Z,100219.64
2022-11-15T07:23:40.948Z,100213.92
2022-11-15T07:26:10.231Z,100212.37
2022-11-15T07:28:38.215Z,100208.56
2022-11-15T07:31:08.508Z,100205.41
2022-11-15T07:33:36.885Z,100205.73
2022-11-15T07:36:06.218Z,100206.23
2022-11-15T07:38:41.226Z,100203.09
2022-11-15T07:41:10.601Z,100200.80
2022-11-15T07:43:39.128Z,100202.33
2022-11-15T07:46:10.298Z,100200.25
2022-11-15T07:48:45.267Z,100204.94
2022-11-15T07:51:15.629Z,100207.89
2022-11-15T07:53:44.786Z,100196.50
2022-11-15T07:56:13.332Z,100199.27
2022-11-15T07:58:41.328Z,100198.05
2022-11-15T08:01:12.583Z,100196.16
2022-11-15T08:03:40.422Z,100193.23
2022-11-15T08:06:08.081Z,100194.13
2022-11-15T08:08:35.984Z,100190.36
2022-11-15T08:11:09.750Z,100189.32
2022-11-15T08:13:38.503Z,100185.02
2022-11-15T08:16:06.656Z,100182.60
2022-11-15T08:18:34.489Z,100183.27
2022-11-15T08:21:03.138Z,100182.77
2022-11-15T08:23:32.141Z,100180.31
2022-11-15T08:26:04.309Z,100178.21
2022-11-15T08:28:33.453Z,100178.67
2022-11-15T08:31:01.228Z,100179.84
2022-11-15T08:33:30.101Z,100178.25
2022-11-15T08:36:00.243Z,100178.95
2022-11-15T08:38:30.544Z,100179.28
2022-11-15T08:41:04.977Z,100180.65
2022-11-15T08:43:34.536Z,100187.06
2022-11-15T08:46:09.243Z,100189.31
2022-11-15T08:48:37.100Z,100190.70
2022-11-15T08:51:07.469Z,100188.51
2022-11-15T08:53:35.648Z,100189.96
2022-11-15T08:56:04.096Z,100190.87
2022-11-15T08:58:32.205Z,100188.08
2022-11-15T09:01:00.146Z,100185.63
2022-11-15T09:03:27.830Z,100180.90
2022-11-15T09:06:00.835Z,100175.34
2022-11-15T09:08:46.924Z,100169.08
2022-11-15T09:11:17.445Z,100165.41
2022-11-15T09:13:48.053Z,100165.39
2022-11-15T09:16:16.346Z,100163.45
2022-11-15T09:18:44.238Z,100157.36
2022-11-15T09:21:12.257Z,100158.55
2022-11-15T09:23:39.858Z,100160.08
2022-11-15T09:26:07.924Z,100158.98
2022-11-15T09:28:37.299Z,100156.57
2022-11-15T09:31:07.099Z,100150.15
2022-11-15T09:33:44.981Z,100150.80
2022-11-15T09:36:13.090Z,100149.71
2022-11-15T09:38:40.676Z,100147.26
2022-11-15T09:41:14.626Z,100148.81
2022-11-15T09:44:21.128Z,100148.48
2022-11-15T09:47:23.192Z,100145.04
2022-11-15T09:49:57.948Z,100148.48
2022-11-15T09:52:32.532Z,100150.90
2022-11-15T10:06:03.807Z,100128.23
2022-11-15T10:08:35.680Z,100128.77
2022-11-15T10:14:24.856Z,100121.63
2022-11-15T10:17:14.353Z,100120.05
2022-11-15T10:20:05.269Z,100112.08
2022-11-15T10:22:41.487Z,100112.93
2022-11-15T10:25:09.050Z,100115.36
2022-11-15T10:27:37.017Z,100111.42
2022-11-15T10:30:11.167Z,100107.85
2022-11-15T10:32:40.237Z,100111.90
2022-11-15T10:35:28.864Z,100107.58
2022-11-15T10:38:13.017Z,100109.51
2022-11-15T10:40:42.446Z,100112.95
2022-11-15T10:43:10.327Z,100107.92
2022-11-15T10:45:48.343Z,100105.83
2022-11-15T10:48:22.508Z,100101.98
2022-11-15T10:50:52.763Z,100101.24
2022-11-15T10:53:45.077Z,100095.63
2022-11-15T10:56:18.555Z,100091.41
2022-11-15T10:58:54.407Z,100090.50
2022-11-15T11:01:27.806Z,100086.11
2022-11-15T11:04:02.444Z,100086.56
2022-11-15T11:06:31.241Z,100082.16
2022-11-15T11:09:01.853Z,100077.73
2022-11-15T11:11:56.091Z,100072.95
2022-11-15T11:14:35.524Z,100071.77
2022-11-15T11:17:22.092Z,100072.92
2022-11-15T11:19:56.063Z,100077.73
2022-11-15T11:22:43.070Z,100069.75
2022-11-15T11:25:42.694Z,100069.77
2022-11-15T11:28:26.243Z,100066.15
2022-11-15T11:31:19.272Z,100063.73
2022-11-15T11:34:14.967Z,100056.48
2022-11-15T11:36:51.772Z,100047.77
2022-11-15T11:39:30.209Z,100055.55
2022-11-15T11:42:11.676Z,100051.56
2022-11-15T11:44:58.221Z,100052.28
2022-11-15T11:47:34.711Z,100049.42
2022-11-15T11:50:16.527Z,100049.61
2022-11-15T11:53:13.093Z,100043.25
2022-11-15T11:55:54.061Z,100040.89
2022-11-15T11:58:36.995Z,100036.07
2022-11-15T12:01:36.589Z,100039.54
2022-11-15T12:04:17.921Z,100038.33
2022-11-15T12:06:54.603Z,100041.80
2022-11-15T12:09:37.192Z,100039.09
2022-11-15T12:12:13.045Z,100037.21
2022-11-15T12:15:15.026Z,100035.15
2022-11-15T12:17:43.467Z,100037.48
2022-11-15T12:20:19.960Z,100038.19
2022-11-15T12:23:15.400Z,100035.06
2022-11-15T12:26:11.091Z,100029.83
2022-11-15T12:29:09.134Z,100021.29
2022-11-15T12:31:40.978Z,100022.06
2022-11-15T12:34:42.994Z,100017.13
2022-11-15T12:37:33.379Z,100011.51
2022-11-15T12:40:22.269Z,100011.00
2022-11-15T12:43:23.172Z,100008.55
2022-11-15T12:46:02.653Z,99999.52
2022-11-15T12:48:37.040Z,100002.76
2022-11-15T12:51:05.241Z,100003.93
2022-11-15T12:53:34.965Z,100003.39
2022-11-15T12:56:05.584Z,100007.14
2022-11-15T12:59:06.187Z,100008.33
2022-11-15T13:01:34.330Z,100009.55
2022-11-15T13:04:20.951Z,100007.67
2022-11-15T13:06:52.194Z,100008.19
2022-11-15T13:09:38.637Z,100009.38
2022-11-15T13:12:26.323Z,100002.95
2022-11-15T13:15:22.790Z,100000.66
2022-11-15T13:17:51.635Z,99998.56
2022-11-15T13:20:27.510Z,99996.65
2022-11-15T13:23:04.055Z,99990.44
2022-11-15T13:25:40.552Z,99993.04
2022-11-15T13:28:15.833Z,99993.39
2022-11-15T13:31:01.394Z,99995.51
2022-11-15T13:33:36.218Z,99988.09
2022-11-15T13:36:17.623Z,99989.63
2022-11-15T13:38:45.688Z,99990.48
2022-11-15T13:41:22.093Z,99988.20
2022-11-15T13:43:51.940Z,99984.56
2022-11-15T13:46:35.434Z,99984.91
2022-11-15T13:49:12.340Z,99981.13
2022-11-15T13:51:42.670Z,99979.96
2022-11-15T13:54:13.086Z,99983.28
2022-11-15T13:57:12.668Z,99980.70
2022-11-15T14:00:10.605Z,99987.75
2022-11-15T14:02:38.438Z,99989.30
2022-11-15T14:05:26.421Z,99989.67
2022-11-15T14:07:59.798Z,99988.83
2022-11-15T14:10:34.056Z,99985.55
2022-11-15T14:13:03.552Z,99983.86
2022-11-15T14:15:34.944Z,99982.70
2022-11-15T14:18:03.889Z,99972.50
2022-11-15T14:20:39.348Z,99970.09
2022-11-15T14:23:25.714Z,99970.39
2022-11-15T14:25:58.031Z,99969.70
2022-11-15T14:28:25.572Z,99968.17
2022-11-15T14:30:56.998Z,99967.70
2022-11-15T14:33:41.045Z,99965.99
2022-11-15T14:36:13.688Z,99961.17
2022-11-15T14:38:43.727Z,99958.96
2022-11-15T14:41:17.457Z,99957.80
2022-11-15T14:43:45.004Z,99953.30
2022-11-15T14:46:12.666Z,99956.77
2022-11-15T14:48:40.297Z,99955.53
2022-11-15T14:51:14.254Z,99958.66
2022-11-15T14:53:44.562Z,99955.05
2022-11-15T14:56:13.075Z,99955.78
2022-11-15T14:58:40.902Z,99951.33
2022-11-15T15:01:26.701Z,99950.14
2022-11-15T15:03:59.159Z,99950.70
2022-11-15T15:06:27.312Z,99945.39
2022-11-15T15:08:54.955Z,99943.16
2022-11-15T15:11:25.112Z,99944.37
2022-11-15T15:13:53.578Z,99941.95
2022-11-15T15:16:21.159Z,99949.91
2022-11-15T15:18:49.091Z,99950.81
2022-11-15T15:21:25.622Z,99954.80
2022-11-15T15:23:55.105Z,99958.14
2022-11-15T15:26:24.260Z,99958.66
2022-11-15T15:28:52.838Z,99955.38
2022-11-15T15:31:20.532Z,99957.45
2022-11-15T15:33:48.156Z,99953.81
2022-11-15T15:36:19.287Z,99948.27
2022-11-15T15:38:47.931Z,99949.49
2022-11-15T15:41:17.619Z,99953.83
2022-11-15T15:43:46.119Z,99957.66
2022-11-15T15:46:19.344Z,99954.21
2022-11-15T15:48:47.224Z,99951.28
2022-11-15T15:51:20.198Z,99952.17
2022-11-15T15:53:49.247Z,99948.39
2022-11-15T15:56:16.942Z,99951.88
2022-11-15T15:58:44.529Z,99944.12
2022-11-15T16:01:12.206Z,99945.33
2022-11-15T16:03:39.914Z,99941.15
2022-11-15T16:06:46.066Z,99933.91
2022-11-15T16:09:19.304Z,99929.29
2022-11-15T16:11:48.095Z,99932.64
2022-11-15T16:14:15.832Z,99929.75
2022-11-15T16:16:43.431Z,99934.08
2022-11-15T16:19:12.728Z,99930.77
2022-11-15T16:21:40.318Z,99931.29
2022-11-15T16:24:08.110Z,99926.64
2022-11-15T16:26:36.763Z,99928.54
2022-11-15T16:29:04.438Z,99930.27
2022-11-15T16:31:32.067Z,99931.14
2022-11-15T16:33:59.645Z,99929.42
2022-11-15T16:36:30.889Z,99928.42
2022-11-15T16:39:00.250Z,99927.03
2022-11-15T16:41:27.921Z,99931.70
2022-11-15T16:43:55.667Z,99931.70
2022-11-15T16:46:26.205Z,99931.71
2022-11-15T16:48:54.456Z,99930.18
2022-11-15T16:51:23.250Z,99930.39
2022-11-15T16:53:50.994Z,99932.52
2022-11-15T16:56:27.010Z,99930.52
2022-11-15T16:58:58.480Z,99932.29
2022-11-15T17:01:35.546Z,99932.66
2022-11-15T17:04:20.086Z,99934.73
2022-11-15T17:06:48.680Z,99934.16
2022-11-15T17:09:25.301Z,99937.10
2022-11-15T17:11:53.729Z,99943.52
2022-11-15T17:14:21.714Z,99943.71
2022-11-15T17:16:49.537Z,99947.00
2022-11-15T17:19:21.400Z,99946.14
2022-11-15T17:21:49.790Z,99943.59
2022-11-15T17:24:17.711Z,99941.89
2022-11-15T17:26:45.373Z,99938.45
2022-11-15T17:29:13.027Z,99934.48
2022-11-15T17:31:40.820Z,99932.05
2022-11-15T17:34:08.701Z,99929.63
2022-11-15T17:36:36.471Z,99932.22
2022-11-15T17:39:04.891Z,99931.00
2022-11-15T17:41:32.653Z,99930.15
2022-11-15T17:44:01.890Z,99931.02
2022-11-15T17:46:30.125Z,99930.33
2022-11-15T17:48:58.123Z,99933.77
2022-11-15T17:51:26.062Z,99932.36
2022-11-15T17:53:55.467Z,99927.12
2022-11-15T17:56:25.617Z,99925.37
2022-11-15T17:58:55.867Z,99930.18
2022-11-15T18:01:40.737Z,99933.98
2022-11-15T18:04:10.639Z,99937.09
2022-11-15T18:06:38.570Z,99942.10
2022-11-15T18:09:07.356Z,99943.31
2022-11-15T18:11:41.483Z,99943.14
2022-11-15T18:14:13.907Z,99943.98
2022-11-15T18:16:42.135Z,99940.85
2022-11-15T18:19:13.960Z,99932.52
2022-11-15T18:21:56.589Z,99932.36
2022-11-15T18:24:30.283Z,99931.65
2022-11-15T18:27:00.240Z,99927.15
2022-11-15T18:29:28.320Z,99919.71
2022-11-15T18:31:56.264Z,99918.33
2022-11-15T18:34:26.875Z,99914.01
2022-11-15T18:36:54.792Z,99908.86
2022-11-15T18:39:22.487Z,99904.39
2022-11-15T18:41:50.339Z,99899.91
2022-11-15T18:44:18.782Z,99904.90
2022-11-15T18:46:46.854Z,99907.66
2022-11-15T18:49:16.814Z,99914.06
2022-11-15T18:51:44.641Z,99921.36
2022-11-15T18:54:14.518Z,99921.71
2022-11-15T18:56:47.158Z,99920.84
2022-11-15T18:59:16.307Z,99912.89
2022-11-15T19:01:50.011Z,99913.21
2022-11-15T19:04:20.734Z,99914.10
2022-11-15T19:06:50.301Z,99918.60
2022-11-15T19:09:19.494Z,99915.48
2022-11-15T19:11:48.938Z,99915.46
2022-11-15T19:14:17.956Z,99919.95
2022-11-15T19:16:52.321Z,99919.59
2022-11-15T19:19:25.335Z,99920.82
2022-11-15T19:21:53.138Z,99919.98
2022-11-15T19:24:21.098Z,99913.46
2022-11-15T19:26:48.848Z,99913.66
2022-11-15T19:29:18.239Z,99916.10
2022-11-15T19:31:48.572Z,99913.52
2022-11-15T19:34:16.596Z,99909.02
2022-11-15T19:36:45.178Z,99909.02
2022-11-15T19:39:14.724Z,99912.17
2022-11-15T19:41:48.220Z,99914.59
2022-11-15T19:44:15.974Z,99915.13
2022-11-15T19:46:44.410Z,99917.37
2022-11-15T19:49:12.400Z,99919.13
2022-11-15T19:51:42.674Z,99914.98
2022-11-15T19:54:11.017Z,99910.67
2022-11-15T19:56:39.946Z,99911.52
2022-11-15T19:59:08.918Z,99913.23
2022-11-15T20:01:39.048Z,99912.19
2022-11-15T20:04:09.723Z,99922.03
2022-11-15T20:06:40.916Z,99921.67
2022-11-15T20:09:13.338Z,99921.52
2022-11-15T20:11:41.534Z,99923.25
2022-11-15T20:14:11.529Z,99919.66
2022-11-15T20:16:39.574Z,99916.38
2022-11-15T20:19:08.676Z,99917.59
2022-11-15T20:21:36.336Z,99918.95
2022-11-15T20:24:05.763Z,99920.31
2022-11-15T20:26:33.435Z,99920.46
2022-11-15T20:29:03.822Z,99922.85
2022-11-15T20:31:32.887Z,99917.84
2022-11-15T20:34:00.520Z,99910.04
2022-11-15T20:36:29.672Z,99907.59
2022-11-15T20:38:59.306Z,99898.94
2022-11-15T20:41:28.214Z,99897.20
2022-11-15T20:43:56.258Z,99900.81
2022-11-15T20:46:23.929Z,99901.13
2022-11-15T20:48:51.604Z,99896.64
2022-11-15T20:51:19.907Z,99898.39
2022-11-15T20:53:48.718Z,99892.55
2022-11-15T20:56:19.058Z,99886.84
2022-11-15T20:58:50.629Z,99884.24
2022-11-15T21:01:23.829Z,99883.38
2022-11-15T21:03:53.907Z,99882.52
2022-11-15T21:06:23.160Z,99884.41
2022-11-15T21:09:08.080Z,99885.98
2022-11-15T21:11:52.406Z,99890.64
2022-11-15T21:14:20.226Z,99895.30
2022-11-15T21:16:48.438Z,99893.94
2022-11-15T21:19:16.041Z,99891.55
2022-11-15T21:21:43.630Z,99888.44
2022-11-15T21:24:11.408Z,99886.15
2022-11-15T21:26:39.039Z,99881.65
2022-11-15T21:29:06.729Z,99879.02
2022-11-15T21:31:34.444Z,99873.13
2022-11-15T21:34:02.998Z,99868.64
2022-11-15T21:36:31.150Z,99864.48
2022-11-15T21:38:58.745Z,99865.86
2022-11-15T21:41:26.373Z,99864.14
2022-11-15T21:43:58.305Z,99862.93
2022-11-15T21:46:26.663Z,99858.63
2022-11-15T21:48:54.270Z,99852.95
2022-11-15T21:51:22.473Z,99853.47
2022-11-15T21:53:53.838Z,99852.77
2022-11-15T21:56:21.515Z,99853.12
2022-11-15T21:58:49.609Z,99850.36
2022-11-15T22:01:33.273Z,99846.52
2022-11-15T22:04:01.003Z,99845.65
2022-11-15T22:06:28.963Z,99842.54
2022-11-15T22:08:56.666Z,99841.66
2022-11-15T22:11:24.465Z,99840.97
2022-11-15T22:13:52.160Z,99843.56
2022-11-15T22:16:19.924Z,99851.16
2022-11-15T22:18:47.628Z,99854.62
2022-11-15T22:21:17.860Z,99851.64
2022-11-15T22:23:46.051Z,99847.30
2022-11-15T22:26:20.668Z,99847.27
2022-11-15T22:28:50.961Z,99846.77
2022-11-15T22:31:18.714Z,99847.13
2022-11-15T22:33:46.394Z,99846.59
2022-11-15T22:36:14.177Z,99844.67
2022-11-15T22:38:41.941Z,99844.31
2022-11-15T22:41:09.685Z,99840.52
2022-11-15T22:43:37.774Z,99837.53
2022-11-15T22:46:06.076Z,99833.71
2022-11-15T22:48:36.557Z,99823.46
2022-11-15T22:51:06.020Z,99821.73
2022-11-15T22:53:33.919Z,99818.45
2022-11-15T22:56:05.410Z,99817.25
2022-11-15T22:58:34.434Z,99818.82
2022-11-15T23:01:04.799Z,99818.30
2022-11-15T23:03:33.870Z,99816.38
2022-11-15T23:06:04.462Z,99817.06
2022-11-15T23:08:32.874Z,99816.69
2022-11-15T23:11:17.759Z,99814.23
2022-11-15T23:13:45.493Z,99814.58
2022-11-15T23:16:29.154Z,99823.40
2022-11-15T23:18:58.876Z,99820.63
2022-11-15T23:21:49.554Z,99818.55
2022-11-15T23:24:18.245Z,99816.30
2022-11-15T23:26:48.281Z,99814.09
2022-11-15T23:29:17.960Z,99810.12
2022-11-15T23:32:02.869Z,99807.89
2022-11-15T23:34:32.415Z,99796.64
2022-11-15T23:37:00.176Z,99796.45
2022-11-15T23:39:28.063Z,99797.51
2022-11-15T23:41:56.079Z,99801.83
2022-11-15T23:44:24.352Z,99799.76
2022-11-15T23:46:53.549Z,99791.30
2022-11-15T23:49:21.950Z,99785.94
2022-11-15T23:51:49.700Z,99785.95
2022-11-15T23:54:17.463Z,99784.90
2022-11-15T23:56:45.239Z,99775.87
2022-11-15T23:59:12.977Z,99769.95
